Terminal Aerodrome Forecast
Issued by NWS

Home | Current Version | Previous Version | Text Only | Print | Product List | Glossary On
Versions: 1 2 3 4 5 6 7 8 9 10 11 12 13 14
000
FTUS42 KTBW 242320
TAFLAL
TAF
KLAL 242320Z 2500/2524 29006KT P6SM VCTS BKN045CB BKN100
      TEMPO 2500/2502 3SM RA BKN035
     FM250200 12004KT P6SM VCSH SCT040 BKN100
     FM250400 00000KT P6SM FEW030 SCT100 SCT250
     FM251400 17005KT P6SM SCT030 BKN100
     FM251800 22006KT P6SM VCTS BKN045CB BKN100
     FM252200 27008KT P6SM VCTS BKN050CB
      AMD NOT SKED 2502/2511=

USA.gov is the U.S. government's official web portal to all federal, state and local government web resources and services.